Stephen Scott — WCW8842 — position and weather

sailwx.info

Track history (hours):
 
Tides and Currents Weather Stations Pressure Air Temp Water Temp Dewpoint Dewpoint Depression Visibility Wind Speed Wind Dir Waves Ship Positions

Stephen Scott

Owner: H A REINAUER INC, STATEN ISLAND, NY. More information available from US FCC via Universal Licensing System and Coast Guard Vessel Documentation Center.

Last reported at 2014-Oct-30 03:32 UTC. Time now 2014-Oct-30 17:41 UTC.
Position N 40°52' W 073°56'.

Length 30 m; draft 2.5 m.

Type: Towing. MMSI: 366245490.

Date/timePositionNaut miles runAvg speedWind from/ knotsBaromVisibWave heightAir tempDewpointWater temp
2014-Oct-30 03:32N 40°52' W 073°56'7 7.5
2014-Oct-30 02:33N 40°46' W 074°00'7 6.5
2014-Oct-30 01:33N 40°40' W 074°03'5 4.7
2014-Oct-30 00:33N 40°35' W 074°02'3 3.2
2014-Oct-29 23:33N 40°32' W 074°01'5 5.2
2014-Oct-29 22:33N 40°30' W 073°55'5 4.8
2014-Oct-29 21:28N 40°24' W 073°54'6 6.6
2014-Oct-29 20:29N 40°18' W 073°54'7 6.7
2014-Oct-29 19:30N 40°11' W 073°55'7 6.6
2014-Oct-29 18:29N 40°05' W 073°56'7 6.9
2014-Oct-29 17:28N 39°58' W 073°57'6 7.0
2014-Oct-29 16:33N 39°51' W 073°58'7 7.0
2014-Oct-29 15:33N 39°44' W 073°58'69 4.5
2014-Oct-29 00:05N 39°12' W 075°17'910.1
2014-Oct-28 23:11N 39°19' W 075°24'610.3
2014-Oct-28 22:33N 39°24' W 075°30'9 8.6
2014-Oct-28 21:33N 39°32' W 075°33'7 7.2
2014-Oct-28 20:33N 39°39' W 075°33'21 2.1
2014-Oct-28 10:33N 39°53' W 075°12'11 5.4
2014-Oct-28 08:33N 39°49' W 075°24'10 0.5
2014-Oct-27 12:24N 39°52' W 075°12'5 5.2
2014-Oct-27 11:28N 39°51' W 075°18'7 7.2
2014-Oct-27 10:30N 39°48' W 075°26'7 7.5
2014-Oct-27 09:33N 39°42' W 075°31'7 7.0
2014-Oct-27 08:33N 39°35' W 075°33'6 5.9
2014-Oct-27 07:33N 39°33' W 075°40'9 7.3
2014-Oct-27 06:20N 39°32' W 075°52'25 8.9
2014-Oct-27 03:33N 39°14' W 076°14'8 7.8
2014-Oct-27 02:33N 39°10' W 076°22'9 9.0
2014-Oct-27 01:33N 39°14' W 076°33'2 2.0
2014-Oct-27 00:34N 39°15' W 076°34'2 1.8
2014-Oct-26 23:33N 39°17' W 076°36'0 0.0
2014-Oct-26 22:33N 39°17' W 076°36'0 0.0
2014-Oct-26 21:33N 39°17' W 076°36'0 0.0
2014-Oct-26 20:33N 39°17' W 076°36'0 0.0
2014-Oct-26 19:33N 39°17' W 076°36'0 0.0
2014-Oct-26 18:33N 39°17' W 076°36'0 0.0
2014-Oct-26 17:33N 39°17' W 076°36'0 0.0
2014-Oct-26 16:33N 39°17' W 076°36'0 0.0
2014-Oct-26 15:33N 39°17' W 076°36'0 0.0
2014-Oct-26 14:33N 39°17' W 076°36'0 0.0
2014-Oct-26 13:33N 39°17' W 076°36'3 3.0
2014-Oct-26 12:33N 39°14' W 076°34'1 1.3
2014-Oct-26 11:33N 39°14' W 076°32'12 6.2
2014-Oct-26 09:33N 39°11' W 076°17'8 8.1
2014-Oct-26 08:33N 39°19' W 076°13'18 8.4
2014-Oct-26 06:27N 39°30' W 075°55'7 7.4
2014-Oct-26 05:33N 39°32' W 075°47'7 7.0
2014-Oct-26 04:33N 39°33' W 075°38'5 4.6
2014-Oct-26 03:33N 39°31' W 075°33'9 8.7
2014-Oct-26 02:33N 39°23' W 075°29'60 4.3
2014-Oct-25 12:26N 39°27' W 074°11'6 6.7
2014-Oct-25 11:33N 39°32' W 074°07'7 6.7
2014-Oct-25 10:33N 39°38' W 074°03'7 6.7
2014-Oct-25 09:33N 39°44' W 073°59'7 6.6
2014-Oct-25 08:33N 39°51' W 073°58'7 6.6
2014-Oct-25 07:33N 39°57' W 073°57'7 6.8
2014-Oct-25 06:31N 40°04' W 073°56'7 6.9
2014-Oct-25 05:33N 40°11' W 073°55'7 7.3
2014-Oct-25 04:33N 40°18' W 073°55'8 7.6
2014-Oct-25 03:29N 40°26' W 073°54'6 6.3
2014-Oct-25 02:33N 40°31' W 073°59'5 5.2
2014-Oct-25 01:33N 40°35' W 074°02'5 4.7
2014-Oct-25 00:33N 40°39' W 074°06'6 5.7
2014-Oct-24 23:33N 40°36' W 074°12'4 4.0
2014-Oct-24 22:30N 40°33' W 074°15'0 0.2
2014-Oct-24 20:24N 40°33' W 074°15'0 0.0
2014-Oct-24 18:25N 40°33' W 074°15'0 0.0
2014-Oct-24 16:08N 40°33' W 074°15'0 0.0
2014-Oct-24 14:27N 40°33' W 074°15'0 0.0
2014-Oct-24 13:26N 40°33' W 074°15'0 0.0
2014-Oct-24 12:20N 40°33' W 074°15'0 0.0
2014-Oct-24 09:09N 40°33' W 074°15'5 1.3
2014-Oct-24 05:33N 40°37' W 074°12'7 7.5
2014-Oct-24 04:33N 40°40' W 074°03'2 1.7
2014-Oct-24 03:33N 40°40' W 074°01'0 0.1
2014-Oct-24 02:33N 40°40' W 074°01'0 0.0
2014-Oct-24 01:33N 40°40' W 074°01'0 0.0
2014-Oct-24 00:33N 40°40' W 074°01'1 0.9
2014-Oct-23 23:33N 40°40' W 074°02'5 4.0
2014-Oct-23 22:24N 40°38' W 074°08'8 2.6
2014-Oct-23 19:28N 40°33' W 074°15'0 0.1
2014-Oct-23 17:32N 40°33' W 074°15'0 0.1
2014-Oct-23 12:31N 40°33' W 074°15'0 0.0
2014-Oct-23 10:30N 40°33' W 074°15'0 0.0
2014-Oct-23 08:28N 40°33' W 074°15'0 0.0
2014-Oct-23 02:05N 40°33' W 074°15'0 0.0
2014-Oct-23 01:23N 40°33' W 074°15'0 0.0
2014-Oct-23 00:27N 40°33' W 074°15'0 0.1
2014-Oct-22 22:13N 40°33' W 074°15'5 6.8
2014-Oct-22 21:33N 40°37' W 074°12'8 7.7
2014-Oct-22 20:33N 40°40' W 074°03'1 1.5
2014-Oct-22 19:33N 40°40' W 074°01'0 0.0
2014-Oct-22 18:33N 40°40' W 074°01'0 0.0
2014-Oct-22 17:33N 40°40' W 074°01'0 0.0
2014-Oct-22 16:33N 40°40' W 074°01'0 0.0
2014-Oct-22 15:33N 40°40' W 074°01'0 0.0
2014-Oct-22 14:33N 40°40' W 074°01'0 0.0
2014-Oct-22 13:33N 40°40' W 074°01'0 0.0
2014-Oct-22 12:33N 40°40' W 074°01'6 5.8
2014-Oct-22 11:33N 40°40' W 074°09'0 0.2
2014-Oct-22 10:33N 40°40' W 074°09'4 4.4
2014-Oct-22 09:33N 40°38' W 074°03'5 1.1
2014-Oct-22 04:28N 40°39' W 074°10'7 3.3
2014-Oct-22 02:24N 40°33' W 074°15'0 0.0
2014-Oct-22 00:24N 40°33' W 074°15'0 0.0
2014-Oct-21 23:28N 40°33' W 074°15'0 0.0
2014-Oct-21 22:23N 40°33' W 074°15'2 0.3
2014-Oct-21 16:19N 40°31' W 074°15'2 2.0
2014-Oct-21 15:33N 40°33' W 074°15'0 0.0
2014-Oct-21 14:28N 40°33' W 074°15'0 0.0
2014-Oct-21 13:32N 40°33' W 074°15'0 0.0
2014-Oct-21 12:28N 40°33' W 074°15'0 0.0
2014-Oct-21 11:29N 40°33' W 074°15'0 0.0
2014-Oct-21 10:33N 40°33' W 074°15'0 0.0
2014-Oct-21 09:28N 40°33' W 074°15'0 0.0
2014-Oct-21 08:33N 40°33' W 074°15'0 0.2
2014-Oct-21 06:30N 40°33' W 074°15'4 4.1
2014-Oct-21 05:33N 40°36' W 074°12'0 0.0
2014-Oct-21 04:30N 40°36' W 074°12'0 0.0
2014-Oct-21 03:30N 40°36' W 074°12'1 1.4
2014-Oct-21 02:32N 40°37' W 074°12'1 0.3
2014-Oct-20 23:33N 40°36' W 074°12'2 2.3
2014-Oct-20 22:33N 40°39' W 074°11'8 8.0
2014-Oct-20 21:33N 40°40' W 074°01'0 0.0
2014-Oct-20 20:33N 40°40' W 074°01'0 0.0
2014-Oct-20 19:33N 40°40' W 074°01'0 0.2
2014-Oct-20 18:33N 40°40' W 074°01'1 1.0
2014-Oct-20 17:33N 40°40' W 074°02'0 0.1
2014-Oct-20 16:33N 40°40' W 074°02'0 0.0
2014-Oct-20 15:33N 40°40' W 074°02'0 0.0
2014-Oct-20 14:33N 40°40' W 074°02'0 0.1
2014-Oct-20 13:33N 40°40' W 074°02'9 8.8
2014-Oct-20 12:33N 40°47' W 073°55'7 7.4
2014-Oct-20 11:33N 40°50' W 073°46'13 9.4
2014-Oct-20 10:12N 40°57' W 073°33'6 9.6
2014-Oct-20 09:33N 40°60' W 073°25'9 9.4
2014-Oct-20 08:33N 41°03' W 073°14'9 8.9
2014-Oct-20 07:33N 41°07' W 073°03'9 8.2
2014-Oct-20 06:26N 41°14' W 072°55'  
Track history (hours):
 
Tides and Currents Weather Stations Pressure Air Temp Water Temp Dewpoint Dewpoint Depression Visibility Wind Speed Wind Dir Waves Ship Positions

Stephen Scott

Owner: H A REINAUER INC, STATEN ISLAND, NY. More information available from US FCC via Universal Licensing System and Coast Guard Vessel Documentation Center.

Last reported at 2014-Oct-30 03:32 UTC. Time now 2014-Oct-30 17:41 UTC.
Position N 40°52' W 073°56'.

Length 30 m; draft 2.5 m.

Type: Towing. MMSI: 366245490.

Date/timePositionNaut miles runAvg speedWind from/ knotsBaromVisibWave heightAir tempDewpointWater temp
2014-Oct-30 03:32N 40°52' W 073°56'7 7.5
2014-Oct-30 02:33N 40°46' W 074°00'7 6.5
2014-Oct-30 01:33N 40°40' W 074°03'5 4.7
2014-Oct-30 00:33N 40°35' W 074°02'3 3.2
2014-Oct-29 23:33N 40°32' W 074°01'5 5.2
2014-Oct-29 22:33N 40°30' W 073°55'5 4.8
2014-Oct-29 21:28N 40°24' W 073°54'6 6.6
2014-Oct-29 20:29N 40°18' W 073°54'7 6.7
2014-Oct-29 19:30N 40°11' W 073°55'7 6.6
2014-Oct-29 18:29N 40°05' W 073°56'7 6.9
2014-Oct-29 17:28N 39°58' W 073°57'6 7.0
2014-Oct-29 16:33N 39°51' W 073°58'7 7.0
2014-Oct-29 15:33N 39°44' W 073°58'69 4.5
2014-Oct-29 00:05N 39°12' W 075°17'910.1
2014-Oct-28 23:11N 39°19' W 075°24'610.3
2014-Oct-28 22:33N 39°24' W 075°30'9 8.6
2014-Oct-28 21:33N 39°32' W 075°33'7 7.2
2014-Oct-28 20:33N 39°39' W 075°33'21 2.1
2014-Oct-28 10:33N 39°53' W 075°12'11 5.4
2014-Oct-28 08:33N 39°49' W 075°24'10 0.5
2014-Oct-27 12:24N 39°52' W 075°12'5 5.2
2014-Oct-27 11:28N 39°51' W 075°18'7 7.2
2014-Oct-27 10:30N 39°48' W 075°26'7 7.5
2014-Oct-27 09:33N 39°42' W 075°31'7 7.0
2014-Oct-27 08:33N 39°35' W 075°33'6 5.9
2014-Oct-27 07:33N 39°33' W 075°40'9 7.3
2014-Oct-27 06:20N 39°32' W 075°52'25 8.9
2014-Oct-27 03:33N 39°14' W 076°14'8 7.8
2014-Oct-27 02:33N 39°10' W 076°22'9 9.0
2014-Oct-27 01:33N 39°14' W 076°33'2 2.0
2014-Oct-27 00:34N 39°15' W 076°34'2 1.8
2014-Oct-26 23:33N 39°17' W 076°36'0 0.0
2014-Oct-26 22:33N 39°17' W 076°36'0 0.0
2014-Oct-26 21:33N 39°17' W 076°36'0 0.0
2014-Oct-26 20:33N 39°17' W 076°36'0 0.0
2014-Oct-26 19:33N 39°17' W 076°36'0 0.0
2014-Oct-26 18:33N 39°17' W 076°36'0 0.0
2014-Oct-26 17:33N 39°17' W 076°36'0 0.0
2014-Oct-26 16:33N 39°17' W 076°36'0 0.0
2014-Oct-26 15:33N 39°17' W 076°36'0 0.0
2014-Oct-26 14:33N 39°17' W 076°36'0 0.0
2014-Oct-26 13:33N 39°17' W 076°36'3 3.0
2014-Oct-26 12:33N 39°14' W 076°34'1 1.3
2014-Oct-26 11:33N 39°14' W 076°32'12 6.2
2014-Oct-26 09:33N 39°11' W 076°17'8 8.1
2014-Oct-26 08:33N 39°19' W 076°13'18 8.4
2014-Oct-26 06:27N 39°30' W 075°55'7 7.4
2014-Oct-26 05:33N 39°32' W 075°47'7 7.0
2014-Oct-26 04:33N 39°33' W 075°38'5 4.6
2014-Oct-26 03:33N 39°31' W 075°33'9 8.7
2014-Oct-26 02:33N 39°23' W 075°29'60 4.3
2014-Oct-25 12:26N 39°27' W 074°11'6 6.7
2014-Oct-25 11:33N 39°32' W 074°07'7 6.7
2014-Oct-25 10:33N 39°38' W 074°03'7 6.7
2014-Oct-25 09:33N 39°44' W 073°59'7 6.6
2014-Oct-25 08:33N 39°51' W 073°58'7 6.6
2014-Oct-25 07:33N 39°57' W 073°57'7 6.8
2014-Oct-25 06:31N 40°04' W 073°56'7 6.9
2014-Oct-25 05:33N 40°11' W 073°55'7 7.3
2014-Oct-25 04:33N 40°18' W 073°55'8 7.6
2014-Oct-25 03:29N 40°26' W 073°54'6 6.3
2014-Oct-25 02:33N 40°31' W 073°59'5 5.2
2014-Oct-25 01:33N 40°35' W 074°02'5 4.7
2014-Oct-25 00:33N 40°39' W 074°06'6 5.7
2014-Oct-24 23:33N 40°36' W 074°12'4 4.0
2014-Oct-24 22:30N 40°33' W 074°15'0 0.2
2014-Oct-24 20:24N 40°33' W 074°15'0 0.0
2014-Oct-24 18:25N 40°33' W 074°15'0 0.0
2014-Oct-24 16:08N 40°33' W 074°15'0 0.0
2014-Oct-24 14:27N 40°33' W 074°15'0 0.0
2014-Oct-24 13:26N 40°33' W 074°15'0 0.0
2014-Oct-24 12:20N 40°33' W 074°15'0 0.0
2014-Oct-24 09:09N 40°33' W 074°15'5 1.3
2014-Oct-24 05:33N 40°37' W 074°12'7 7.5
2014-Oct-24 04:33N 40°40' W 074°03'2 1.7
2014-Oct-24 03:33N 40°40' W 074°01'0 0.1
2014-Oct-24 02:33N 40°40' W 074°01'0 0.0
2014-Oct-24 01:33N 40°40' W 074°01'0 0.0
2014-Oct-24 00:33N 40°40' W 074°01'1 0.9
2014-Oct-23 23:33N 40°40' W 074°02'5 4.0
2014-Oct-23 22:24N 40°38' W 074°08'8 2.6
2014-Oct-23 19:28N 40°33' W 074°15'0 0.1
2014-Oct-23 17:32N 40°33' W 074°15'0 0.1
2014-Oct-23 12:31N 40°33' W 074°15'0 0.0
2014-Oct-23 10:30N 40°33' W 074°15'0 0.0
2014-Oct-23 08:28N 40°33' W 074°15'0 0.0
2014-Oct-23 02:05N 40°33' W 074°15'0 0.0
2014-Oct-23 01:23N 40°33' W 074°15'0 0.0
2014-Oct-23 00:27N 40°33' W 074°15'0 0.1
2014-Oct-22 22:13N 40°33' W 074°15'5 6.8
2014-Oct-22 21:33N 40°37' W 074°12'8 7.7
2014-Oct-22 20:33N 40°40' W 074°03'1 1.5
2014-Oct-22 19:33N 40°40' W 074°01'0 0.0
2014-Oct-22 18:33N 40°40' W 074°01'0 0.0
2014-Oct-22 17:33N 40°40' W 074°01'0 0.0
2014-Oct-22 16:33N 40°40' W 074°01'0 0.0
2014-Oct-22 15:33N 40°40' W 074°01'0 0.0
2014-Oct-22 14:33N 40°40' W 074°01'0 0.0
2014-Oct-22 13:33N 40°40' W 074°01'0 0.0
2014-Oct-22 12:33N 40°40' W 074°01'6 5.8
2014-Oct-22 11:33N 40°40' W 074°09'0 0.2
2014-Oct-22 10:33N 40°40' W 074°09'4 4.4
2014-Oct-22 09:33N 40°38' W 074°03'5 1.1
2014-Oct-22 04:28N 40°39' W 074°10'7 3.3
2014-Oct-22 02:24N 40°33' W 074°15'0 0.0
2014-Oct-22 00:24N 40°33' W 074°15'0 0.0
2014-Oct-21 23:28N 40°33' W 074°15'0 0.0
2014-Oct-21 22:23N 40°33' W 074°15'2 0.3
2014-Oct-21 16:19N 40°31' W 074°15'2 2.0
2014-Oct-21 15:33N 40°33' W 074°15'0 0.0
2014-Oct-21 14:28N 40°33' W 074°15'0 0.0
2014-Oct-21 13:32N 40°33' W 074°15'0 0.0
2014-Oct-21 12:28N 40°33' W 074°15'0 0.0
2014-Oct-21 11:29N 40°33' W 074°15'0 0.0
2014-Oct-21 10:33N 40°33' W 074°15'0 0.0
2014-Oct-21 09:28N 40°33' W 074°15'0 0.0
2014-Oct-21 08:33N 40°33' W 074°15'0 0.2
2014-Oct-21 06:30N 40°33' W 074°15'4 4.1
2014-Oct-21 05:33N 40°36' W 074°12'0 0.0
2014-Oct-21 04:30N 40°36' W 074°12'0 0.0
2014-Oct-21 03:30N 40°36' W 074°12'1 1.4
2014-Oct-21 02:32N 40°37' W 074°12'1 0.3
2014-Oct-20 23:33N 40°36' W 074°12'2 2.3
2014-Oct-20 22:33N 40°39' W 074°11'8 8.0
2014-Oct-20 21:33N 40°40' W 074°01'0 0.0
2014-Oct-20 20:33N 40°40' W 074°01'0 0.0
2014-Oct-20 19:33N 40°40' W 074°01'0 0.2
2014-Oct-20 18:33N 40°40' W 074°01'1 1.0
2014-Oct-20 17:33N 40°40' W 074°02'0 0.1
2014-Oct-20 16:33N 40°40' W 074°02'0 0.0
2014-Oct-20 15:33N 40°40' W 074°02'0 0.0
2014-Oct-20 14:33N 40°40' W 074°02'0 0.1
2014-Oct-20 13:33N 40°40' W 074°02'9 8.8
2014-Oct-20 12:33N 40°47' W 073°55'7 7.4
2014-Oct-20 11:33N 40°50' W 073°46'13 9.4
2014-Oct-20 10:12N 40°57' W 073°33'6 9.6
2014-Oct-20 09:33N 40°60' W 073°25'9 9.4
2014-Oct-20 08:33N 41°03' W 073°14'9 8.9
2014-Oct-20 07:33N 41°07' W 073°03'9 8.2
2014-Oct-20 06:26N 41°14' W 072°55'  

Dump ship's entire track history